Time;durP1;ratioP1;P1;durP2;ratioP2;P2;SDS_P1;SDS_P2;PMS_P1;PMS_P2;Temp;Humidity;BMP_temperature;BMP_pressure;BME280_temperature;BME280_humidity;BME280_pressure;Samples;Min_cycle;Max_cycle;Signal;HPM_P1;HPM_P2
2022/09/18 00:02:28;;;;;;;;;;;;;;;11.97;72.03;99495.88;5339404;32;33419;-71
2022/09/18 00:05:30;;;;;;;;;;;;;;;11.64;73.28;99502.12;5322948;32;34402;-68
2022/09/18 00:08:32;;;;;;;;;;;;;;;12.07;71.43;99499.69;5328107;32;33423;-73
2022/09/18 00:11:35;;;;;;;;;;;;;;;12.28;71.17;99514.19;5333807;32;33530;-69
2022/09/18 00:14:37;;;;;;;;;;;;;;;12.08;71.94;99501.38;5311092;32;33083;-70
2022/09/18 00:17:39;;;;;;;;;;;;;;;12.04;72.54;99505.13;5329390;32;34018;-71
2022/09/18 00:20:40;;;;;;;;;;;;;;;12.16;71.18;99502.59;5326914;32;33780;-69
2022/09/18 00:23:43;;;;;;;;;;;;;;;11.69;72.65;99496.63;5336754;32;33946;-68
2022/09/18 00:26:45;;;;;;;;;;;;;;;12.17;70.06;99504.31;5323171;32;44762;-71
2022/09/18 00:29:47;;;;;;;;;;;;;;;12.55;68.33;99505.56;5330173;32;33970;-70
2022/09/18 00:32:49;;;;;;;;;;;;;;;12.22;69.65;99511.09;5336098;32;34690;-71
2022/09/18 00:35:50;;;;;;;;;;;;;;;11.85;70.85;99507.97;5325145;32;34347;-67
2022/09/18 00:38:52;;;;;;;;;;;;;;;11.88;70.61;99515.72;5340439;32;33544;-67
2022/09/18 00:41:54;;;;;;;;;;;;;;;12.09;69.46;99517.06;5326127;32;33533;-69
2022/09/18 00:44:56;;;;;;;;;;;;;;;12.81;66.93;99512.72;5342163;32;33375;-68
2022/09/18 00:47:58;;;;;;;;;;;;;;;11.96;69.78;99513.47;5322924;32;33788;-67
2022/09/18 00:50:59;;;;;;;;;;;;;;;11.95;70.83;99513.56;5331725;32;33750;-70
2022/09/18 00:54:10;;;;;;;;;;;;;;;12.27;68.39;99496.69;5335584;32;33969;-67
2022/09/18 00:57:20;;;;;;;;;;;;;;;11.80;70.03;99508.22;5324978;32;33726;-69
2022/09/18 01:00:22;;;;;;;;;;;;;;;12.08;69.97;99501.38;5341831;32;44521;-70
2022/09/18 01:03:24;;;;;;;;;;;;;;;11.66;70.96;99500.28;5324741;32;33185;-67
2022/09/18 01:06:31;;;;;;;;;;;;;;;12.04;69.74;99521.75;5340363;32;34360;-69
2022/09/18 01:09:51;;;;;;;;;;;;;;;11.64;69.50;99508.25;5314317;32;33489;-68
2022/09/18 01:12:54;;;;;;;;;;;;;;;11.63;70.26;99506.56;5324688;32;44291;-68
2022/09/18 01:15:59;;;;;;;;;;;;;;;11.61;70.83;99515.50;5304014;32;33499;-71
2022/09/18 01:19:01;;;;;;;;;;;;;;;12.07;68.31;99511.06;5322605;32;33441;-69
2022/09/18 01:22:22;;;;;;;;;;;;;;;11.83;68.51;99513.34;5339270;32;33431;-71
2022/09/18 01:25:39;;;;;;;;;;;;;;;11.53;69.10;99518.56;5323882;32;34603;-67
2022/09/18 01:28:42;;;;;;;;;;;;;;;12.17;67.22;99520.13;5322793;32;33592;-68
2022/09/18 01:31:45;;;;;;;;;;;;;;;11.48;68.55;99525.03;5340269;32;35511;-70
2022/09/18 01:34:48;;;;;;;;;;;;;;;11.49;69.52;99529.34;5311450;32;33231;-67
2022/09/18 01:37:58;;;;;;;;;;;;;;;11.66;68.04;99523.97;5326737;32;34226;-68
2022/09/18 01:41:01;;;;;;;;;;;;;;;11.51;68.61;99527.47;5324265;32;34060;-67
2022/09/18 01:44:08;;;;;;;;;;;;;;;12.28;65.51;99527.38;5314031;32;33076;-71
2022/09/18 01:47:10;;;;;;;;;;;;;;;12.32;65.00;99536.81;5340420;32;33987;-70
2022/09/18 01:50:12;;;;;;;;;;;;;;;11.87;65.72;99535.09;5311192;32;33320;-70
2022/09/18 01:53:15;;;;;;;;;;;;;;;11.89;66.48;99547.22;5338941;32;45468;-71
2022/09/18 01:56:37;;;;;;;;;;;;;;;12.01;64.90;99560.63;5312060;32;33907;-67
2022/09/18 01:59:43;;;;;;;;;;;;;;;12.34;64.76;99561.25;5335235;32;33196;-67
2022/09/18 02:02:57;;;;;;;;;;;;;;;11.76;65.69;99567.25;5332171;32;44526;-67
2022/09/18 02:06:01;;;;;;;;;;;;;;;11.25;66.97;99565.75;5324129;32;33571;-70
2022/09/18 02:09:03;;;;;;;;;;;;;;;11.18;66.88;99578.38;5326750;32;34540;-71
2022/09/18 02:12:05;;;;;;;;;;;;;;;11.69;66.12;99575.59;5309947;32;32973;-68
2022/09/18 02:15:12;;;;;;;;;;;;;;;11.86;64.52;99580.78;5310025;32;33087;-68
2022/09/18 02:18:16;;;;;;;;;;;;;;;11.48;66.18;99596.91;5318809;32;36834;-67
2022/09/18 02:21:19;;;;;;;;;;;;;;;12.11;62.81;99598.66;5310046;32;33263;-67
2022/09/18 02:24:22;;;;;;;;;;;;;;;12.03;63.32;99593.81;5336969;32;34172;-68
2022/09/18 02:27:24;;;;;;;;;;;;;;;11.78;62.70;99606.66;5310953;32;34363;-70
2022/09/18 02:30:25;;;;;;;;;;;;;;;11.87;62.92;99609.66;5327403;32;33201;-70
2022/09/18 02:33:31;;;;;;;;;;;;;;;11.53;63.73;99601.94;5310518;32;33860;-70
2022/09/18 02:36:45;;;;;;;;;;;;;;;11.34;64.92;99613.47;5339424;32;32983;-69
2022/09/18 02:40:06;;;;;;;;;;;;;;;11.03;65.70;99614.25;5329430;32;44808;-68
2022/09/18 02:43:14;;;;;;;;;;;;;;;11.29;65.34;99618.13;5323772;32;32848;-72
2022/09/18 02:46:19;;;;;;;;;;;;;;;11.34;64.11;99626.63;5339785;32;45358;-70
2022/09/18 02:49:50;;;;;;;;;;;;;;;11.58;63.90;99634.94;5325308;32;33475;-71
2022/09/18 02:52:55;;;;;;;;;;;;;;;11.29;64.11;99628.63;5273699;32;45380;-68
2022/09/18 02:56:13;;;;;;;;;;;;;;;11.35;63.55;99628.31;5337507;32;33791;-69
2022/09/18 02:59:20;;;;;;;;;;;;;;;11.80;61.51;99625.84;5311442;32;45757;-67
2022/09/18 03:02:23;;;;;;;;;;;;;;;11.26;63.85;99634.03;5337833;32;33479;-68
2022/09/18 03:05:25;;;;;;;;;;;;;;;11.03;63.98;99632.66;5320813;32;33773;-68
2022/09/18 03:08:27;;;;;;;;;;;;;;;10.90;64.23;99631.62;5323219;32;33851;-70
2022/09/18 03:11:29;;;;;;;;;;;;;;;11.03;63.37;99639.69;5311633;32;34824;-70
2022/09/18 03:14:31;;;;;;;;;;;;;;;10.95;63.98;99633.97;5311573;32;33176;-69
2022/09/18 03:17:33;;;;;;;;;;;;;;;11.15;62.76;99636.44;5328004;32;33797;-71
2022/09/18 03:20:34;;;;;;;;;;;;;;;10.83;63.67;99625.81;5324085;32;32965;-70
2022/09/18 03:23:36;;;;;;;;;;;;;;;11.20;63.00;99638.78;5335268;32;33642;-71
2022/09/18 03:26:43;;;;;;;;;;;;;;;10.74;64.63;99641.22;5322827;32;33201;-71
2022/09/18 03:29:45;;;;;;;;;;;;;;;11.07;63.50;99634.19;5334980;32;44060;-67
2022/09/18 03:32:46;;;;;;;;;;;;;;;11.30;62.91;99650.53;5314637;32;33609;-68
2022/09/18 03:35:48;;;;;;;;;;;;;;;10.55;64.33;99647.41;5323502;32;33560;-71
2022/09/18 03:38:50;;;;;;;;;;;;;;;10.18;65.87;99643.13;5340684;32;33827;-70
2022/09/18 03:41:52;;;;;;;;;;;;;;;10.33;65.48;99645.94;5323996;32;33519;-70
2022/09/18 03:44:55;;;;;;;;;;;;;;;11.26;62.88;99648.97;5340186;32;33011;-70
2022/09/18 03:47:57;;;;;;;;;;;;;;;11.20;62.36;99646.69;5324323;32;33708;-70
2022/09/18 03:50:59;;;;;;;;;;;;;;;10.55;64.67;99649.19;5334051;32;33744;-67
2022/09/18 03:54:00;;;;;;;;;;;;;;;11.03;63.20;99660.75;5333856;32;34908;-71
2022/09/18 03:57:02;;;;;;;;;;;;;;;11.27;61.88;99654.19;5323499;32;34269;-68
2022/09/18 04:00:05;;;;;;;;;;;;;;;11.03;63.56;99666.84;5342687;32;33645;-68
2022/09/18 04:03:07;;;;;;;;;;;;;;;10.68;64.12;99663.38;5325690;32;32845;-69
2022/09/18 04:06:08;;;;;;;;;;;;;;;11.20;62.50;99667.72;5340719;32;33589;-68
2022/09/18 04:09:10;;;;;;;;;;;;;;;10.56;64.75;99682.41;5326350;32;33801;-70
2022/09/18 04:12:12;;;;;;;;;;;;;;;10.74;64.33;99692.00;5332318;32;33310;-67
2022/09/18 04:15:14;;;;;;;;;;;;;;;10.77;64.12;99677.88;5315727;32;44560;-64
2022/09/18 04:18:16;;;;;;;;;;;;;;;10.76;63.82;99694.56;5306128;32;33525;-71
2022/09/18 04:21:18;;;;;;;;;;;;;;;10.57;64.50;99703.37;5340414;32;34253;-71
2022/09/18 04:24:20;;;;;;;;;;;;;;;10.67;64.44;99706.38;5321547;32;33666;-68
2022/09/18 04:27:21;;;;;;;;;;;;;;;10.36;65.45;99721.94;5340922;32;33766;-68
2022/09/18 04:30:24;;;;;;;;;;;;;;;10.58;65.00;99720.84;5323496;32;33877;-71
2022/09/18 04:33:25;;;;;;;;;;;;;;;10.25;65.86;99727.75;5333402;32;33685;-71
2022/09/18 04:36:27;;;;;;;;;;;;;;;10.72;65.07;99733.28;5332703;32;34045;-70
2022/09/18 04:39:31;;;;;;;;;;;;;;;11.15;63.17;99735.53;5313305;32;33480;-68
2022/09/18 04:42:33;;;;;;;;;;;;;;;10.95;64.04;99733.87;5341719;32;34115;-67
2022/09/18 04:45:35;;;;;;;;;;;;;;;10.83;64.98;99745.91;5325782;32;33579;-70
2022/09/18 04:48:36;;;;;;;;;;;;;;;10.84;63.72;99753.69;5342336;32;33049;-71
2022/09/18 04:51:38;;;;;;;;;;;;;;;11.03;63.27;99752.78;5323917;32;35583;-71
2022/09/18 04:54:40;;;;;;;;;;;;;;;10.95;63.79;99752.28;5332153;32;32817;-68
2022/09/18 04:57:42;;;;;;;;;;;;;;;11.69;60.92;99744.06;5335506;32;33350;-71
2022/09/18 05:00:46;;;;;;;;;;;;;;;11.09;62.58;99762.97;5324911;32;44639;-70
2022/09/18 05:03:48;;;;;;;;;;;;;;;11.59;61.33;99765.63;5341497;32;32998;-70
2022/09/18 05:06:50;;;;;;;;;;;;;;;11.13;62.38;99764.50;5324769;32;33455;-67
2022/09/18 05:09:52;;;;;;;;;;;;;;;11.23;62.25;99775.41;5341653;32;33852;-68
2022/09/18 05:12:53;;;;;;;;;;;;;;;12.03;59.72;99772.91;5325400;32;33706;-69
2022/09/18 05:15:55;;;;;;;;;;;;;;;11.40;60.43;99764.87;5308561;32;34078;-71
2022/09/18 05:18:57;;;;;;;;;;;;;;;11.92;59.30;99770.03;5334617;32;33613;-67
2022/09/18 05:21:59;;;;;;;;;;;;;;;12.61;57.41;99763.53;5322693;32;33525;-71
2022/09/18 05:25:01;;;;;;;;;;;;;;;12.55;56.98;99772.63;5337493;32;33801;-69
2022/09/18 05:28:03;;;;;;;;;;;;;;;11.93;58.37;99772.56;5326097;32;33612;-70
2022/09/18 05:31:05;;;;;;;;;;;;;;;11.58;58.61;99781.47;5326624;32;33738;-68
2022/09/18 05:34:07;;;;;;;;;;;;;;;11.39;59.58;99787.69;5325453;32;33854;-70
2022/09/18 05:37:09;;;;;;;;;;;;;;;11.93;58.06;99788.37;5331181;32;33291;-67
2022/09/18 05:40:12;;;;;;;;;;;;;;;11.43;59.75;99777.88;5335958;32;33496;-68
2022/09/18 05:43:14;;;;;;;;;;;;;;;11.94;57.49;99781.31;5324557;32;43468;-70
2022/09/18 05:46:16;;;;;;;;;;;;;;;12.68;56.16;99785.97;5340010;32;35055;-71
2022/09/18 05:49:18;;;;;;;;;;;;;;;13.36;53.64;99782.91;5310549;32;33471;-67
2022/09/18 05:52:20;;;;;;;;;;;;;;;14.11;51.38;99780.94;5327915;32;35185;-68
2022/09/18 05:55:22;;;;;;;;;;;;;;;15.00;49.64;99781.28;5322571;32;34320;-68
2022/09/18 05:58:24;;;;;;;;;;;;;;;14.40;50.62;99779.91;5331249;32;33772;-68
2022/09/18 06:01:25;;;;;;;;;;;;;;;16.25;45.84;99783.19;5335625;32;33815;-68
2022/09/18 06:04:27;;;;;;;;;;;;;;;16.28;45.95;99776.81;5325747;32;33611;-68
2022/09/18 06:07:30;;;;;;;;;;;;;;;16.53;44.89;99784.69;5342262;32;34171;-71
2022/09/18 06:10:32;;;;;;;;;;;;;;;17.45;42.61;99781.31;5322908;32;33229;-68
2022/09/18 06:13:34;;;;;;;;;;;;;;;16.27;45.15;99775.97;5340392;32;33453;-69
2022/09/18 06:16:36;;;;;;;;;;;;;;;16.69;43.06;99777.31;5301732;32;33926;-71
2022/09/18 06:19:43;;;;;;;;;;;;;;;17.34;42.33;99778.66;5326535;32;33572;-68
2022/09/18 06:22:45;;;;;;;;;;;;;;;19.66;37.46;99774.84;5335641;32;45633;-68
2022/09/18 06:25:47;;;;;;;;;;;;;;;18.06;39.87;99778.34;5307207;32;33812;-67
2022/09/18 06:28:50;;;;;;;;;;;;;;;18.13;39.87;99776.88;5340778;32;33853;-72
2022/09/18 06:31:52;;;;;;;;;;;;;;;18.79;39.53;99780.37;5325694;32;34561;-68
2022/09/18 06:34:54;;;;;;;;;;;;;;;19.15;37.73;99775.62;5339009;32;34361;-72
2022/09/18 06:37:58;;;;;;;;;;;;;;;18.86;38.63;99773.56;5324717;32;34556;-71
2022/09/18 06:41:00;;;;;;;;;;;;;;;17.58;40.82;99797.13;5308893;32;33722;-71
2022/09/18 06:44:02;;;;;;;;;;;;;;;18.32;39.56;99794.87;5341040;32;33582;-71
2022/09/18 06:47:04;;;;;;;;;;;;;;;19.95;36.46;99797.13;5323463;32;33522;-69
2022/09/18 06:50:06;;;;;;;;;;;;;;;17.06;41.71;99803.78;5339635;32;32774;-67
2022/09/18 06:53:08;;;;;;;;;;;;;;;19.39;38.20;99780.69;5324606;32;33606;-72
2022/09/18 06:56:13;;;;;;;;;;;;;;;18.01;40.06;99784.03;5336696;32;33411;-71
2022/09/18 06:59:15;;;;;;;;;;;;;;;17.77;40.31;99800.09;5324964;32;45080;-72
2022/09/18 07:02:17;;;;;;;;;;;;;;;18.50;38.93;99803.19;5324443;32;34594;-71
2022/09/18 07:05:20;;;;;;;;;;;;;;;18.32;38.57;99790.41;5336754;32;33091;-69
2022/09/18 07:08:22;;;;;;;;;;;;;;;17.82;40.01;99811.22;5323246;32;32940;-69
2022/09/18 07:11:24;;;;;;;;;;;;;;;17.40;40.09;99798.56;5338808;32;34554;-72
2022/09/18 07:14:25;;;;;;;;;;;;;;;17.09;41.59;99800.91;5311041;32;34321;-70
2022/09/18 07:17:27;;;;;;;;;;;;;;;17.36;40.93;99813.03;5326230;32;34096;-71
2022/09/18 07:20:29;;;;;;;;;;;;;;;17.45;41.02;99801.69;5325135;32;33567;-72
2022/09/18 07:23:32;;;;;;;;;;;;;;;16.89;41.62;99820.13;5319423;32;35116;-68
2022/09/18 07:26:34;;;;;;;;;;;;;;;15.38;44.36;99819.25;5337792;32;33479;-70
2022/09/18 07:29:36;;;;;;;;;;;;;;;16.09;43.04;99823.19;5322866;32;33312;-68
2022/09/18 07:32:38;;;;;;;;;;;;;;;16.07;42.53;99832.22;5340312;32;33128;-68
2022/09/18 07:35:40;;;;;;;;;;;;;;;14.81;45.48;99843.38;5322182;32;33797;-68
2022/09/18 07:38:42;;;;;;;;;;;;;;;15.58;44.25;99835.59;5336988;32;33429;-70
2022/09/18 07:41:44;;;;;;;;;;;;;;;16.06;43.37;99836.69;5313064;32;36047;-70
2022/09/18 07:44:46;;;;;;;;;;;;;;;15.06;44.99;99837.31;5308688;32;33457;-71
2022/09/18 07:47:47;;;;;;;;;;;;;;;15.88;43.34;99849.41;5339801;32;34052;-69
2022/09/18 07:50:49;;;;;;;;;;;;;;;15.42;43.69;99851.69;5323590;32;33701;-67
2022/09/18 07:53:51;;;;;;;;;;;;;;;16.31;41.60;99841.09;5338822;32;33087;-70
2022/09/18 07:56:53;;;;;;;;;;;;;;;17.08;41.03;99839.03;5323399;32;33781;-72
2022/09/18 07:59:55;;;;;;;;;;;;;;;16.83;39.96;99868.34;5334829;32;34489;-72
2022/09/18 08:03:01;;;;;;;;;;;;;;;16.15;41.07;99851.94;5324530;32;33938;-67
2022/09/18 08:06:03;;;;;;;;;;;;;;;17.03;39.62;99857.97;5307980;32;33777;-70
2022/09/18 08:09:05;;;;;;;;;;;;;;;16.54;41.15;99858.00;5338102;32;33274;-69
2022/09/18 08:12:07;;;;;;;;;;;;;;;16.62;41.03;99871.59;5309587;32;33098;-69
2022/09/18 08:15:09;;;;;;;;;;;;;;;15.49;43.31;99860.91;5320363;32;32985;-70
2022/09/18 08:18:11;;;;;;;;;;;;;;;15.78;42.94;99863.41;5316778;32;33249;-72
2022/09/18 08:21:12;;;;;;;;;;;;;;;15.59;43.05;99869.94;5333149;32;33098;-71
2022/09/18 08:24:16;;;;;;;;;;;;;;;14.96;44.70;99870.63;5322424;32;45372;-71
2022/09/18 08:27:18;;;;;;;;;;;;;;;15.11;44.82;99859.03;5321310;32;34335;-68
2022/09/18 08:30:20;;;;;;;;;;;;;;;15.18;45.43;99876.19;5338139;32;33180;-70
2022/09/18 08:33:22;;;;;;;;;;;;;;;14.63;45.79;99884.25;5323088;32;34451;-68
2022/09/18 08:36:24;;;;;;;;;;;;;;;13.88;47.52;99869.53;5339420;32;34619;-71
2022/09/18 08:39:25;;;;;;;;;;;;;;;14.49;46.61;99874.56;5310871;32;33673;-67
2022/09/18 08:42:34;;;;;;;;;;;;;;;14.69;45.95;99885.66;5336661;32;33646;-67
2022/09/18 08:45:55;;;;;;;;;;;;;;;14.52;45.84;99871.69;5321073;32;34101;-67
2022/09/18 08:49:06;;;;;;;;;;;;;;;14.29;46.37;99880.19;5323485;32;34658;-70
2022/09/18 08:52:14;;;;;;;;;;;;;;;14.39;45.79;99883.97;5342316;32;32979;-71
2022/09/18 08:55:16;;;;;;;;;;;;;;;13.89;47.18;99887.06;5311005;32;44524;-72
2022/09/18 08:58:19;;;;;;;;;;;;;;;14.47;45.63;99879.06;5336845;32;34288;-68
2022/09/18 09:01:21;;;;;;;;;;;;;;;14.06;46.15;99892.19;5318279;32;32982;-69
2022/09/18 09:04:23;;;;;;;;;;;;;;;13.99;46.68;99889.06;5309265;32;33898;-68
2022/09/18 09:07:44;;;;;;;;;;;;;;;13.51;47.89;99885.78;5341607;32;34014;-70
2022/09/18 09:11:01;;;;;;;;;;;;;;;13.74;47.09;99891.50;5320156;32;47747;-68
2022/09/18 09:14:15;;;;;;;;;;;;;;;13.89;47.26;99880.00;5335019;32;33386;-68
2022/09/18 09:17:17;;;;;;;;;;;;;;;14.58;45.61;99881.88;5315425;32;45133;-69
2022/09/18 09:20:23;;;;;;;;;;;;;;;13.56;48.08;99877.59;5323729;32;33928;-68
2022/09/18 09:23:33;;;;;;;;;;;;;;;14.34;47.24;99878.09;5336095;32;33613;-70
2022/09/18 09:26:35;;;;;;;;;;;;;;;15.07;45.87;99876.09;5322484;32;33381;-70
2022/09/18 09:29:38;;;;;;;;;;;;;;;13.93;47.28;99878.87;5338227;32;35280;-69
2022/09/18 09:32:58;;;;;;;;;;;;;;;14.38;46.57;99884.91;5311265;32;33794;-70
2022/09/18 09:36:07;;;;;;;;;;;;;;;14.80;45.58;99880.50;5323650;32;33765;-69
2022/09/18 09:39:09;;;;;;;;;;;;;;;14.76;46.07;99887.81;5337718;32;33352;-69
2022/09/18 09:42:40;;;;;;;;;;;;;;;14.57;45.87;99893.41;5324629;32;33769;-68
2022/09/18 09:45:52;;;;;;;;;;;;;;;14.73;46.30;99903.00;5299503;32;33664;-69
2022/09/18 09:49:04;;;;;;;;;;;;;;;15.24;44.38;99895.28;5323801;32;34139;-68
2022/09/18 09:52:08;;;;;;;;;;;;;;;15.08;45.04;99903.41;5312924;32;33123;-68
2022/09/18 09:55:10;;;;;;;;;;;;;;;14.65;45.66;99915.88;5327418;32;33378;-69
2022/09/18 09:58:28;;;;;;;;;;;;;;;14.08;46.20;99911.44;5322104;32;33668;-71
2022/09/18 10:01:34;;;;;;;;;;;;;;;14.14;46.55;99915.50;5327800;32;34429;-69
2022/09/18 10:04:46;;;;;;;;;;;;;;;14.76;45.45;99921.34;5311287;32;34122;-72
2022/09/18 10:07:49;;;;;;;;;;;;;;;14.36;46.05;99908.81;5323012;32;44644;-67
2022/09/18 10:10:58;;;;;;;;;;;;;;;14.83;45.62;99914.72;5327394;32;34308;-70
2022/09/18 10:14:01;;;;;;;;;;;;;;;14.80;45.66;99913.09;5321168;32;34173;-70
2022/09/18 10:17:03;;;;;;;;;;;;;;;14.87;45.58;99913.53;5320792;32;33753;-69
2022/09/18 10:20:05;;;;;;;;;;;;;;;15.26;44.61;99915.41;5323803;32;34181;-72
2022/09/18 10:23:14;;;;;;;;;;;;;;;15.14;44.75;99916.22;5317669;32;33806;-68
2022/09/18 10:26:24;;;;;;;;;;;;;;;14.48;46.17;99914.28;5316989;32;44737;-68
2022/09/18 10:29:26;;;;;;;;;;;;;;;14.93;44.87;99926.38;5324584;32;33525;-71
2022/09/18 10:32:31;;;;;;;;;;;;;;;14.59;45.73;99914.47;5339740;32;33638;-70
2022/09/18 10:35:41;;;;;;;;;;;;;;;14.52;45.54;99926.38;5323763;32;32805;-71
2022/09/18 10:38:43;;;;;;;;;;;;;;;14.71;45.80;99912.84;5338559;32;33624;-68
2022/09/18 10:41:45;;;;;;;;;;;;;;;13.82;46.81;99928.84;5310246;32;45151;-71
2022/09/18 10:44:57;;;;;;;;;;;;;;;14.47;45.62;99913.44;5322811;32;33423;-69
2022/09/18 10:48:09;;;;;;;;;;;;;;;15.55;43.46;99921.41;5325683;32;34190;-69
2022/09/18 10:51:12;;;;;;;;;;;;;;;15.84;42.22;99910.66;5310119;32;33516;-68
2022/09/18 10:54:18;;;;;;;;;;;;;;;15.51;43.00;99919.06;5325081;32;44881;-67
2022/09/18 10:57:31;;;;;;;;;;;;;;;15.57;42.38;99937.19;5309548;32;33797;-70
2022/09/18 11:00:35;;;;;;;;;;;;;;;15.73;41.84;99929.12;5314201;32;33195;-68
2022/09/18 11:03:37;;;;;;;;;;;;;;;15.73;42.27;99913.22;5322961;32;33480;-68
2022/09/18 11:06:39;;;;;;;;;;;;;;;15.35;42.79;99937.78;5323555;32;33281;-68
2022/09/18 11:09:41;;;;;;;;;;;;;;;14.82;44.13;99920.97;5326488;32;33929;-68
2022/09/18 11:12:49;;;;;;;;;;;;;;;14.97;43.89;99925.25;5321964;32;35875;-68
2022/09/18 11:15:56;;;;;;;;;;;;;;;15.54;42.68;99909.13;5316346;32;34217;-71
2022/09/18 11:19:02;;;;;;;;;;;;;;;15.88;42.04;99915.66;5333010;32;34515;-70
2022/09/18 11:22:28;;;;;;;;;;;;;;;15.73;42.46;99918.53;5308564;32;33029;-71
2022/09/18 11:25:29;;;;;;;;;;;;;;;16.48;40.95;99917.63;5336350;32;33487;-72
2022/09/18 11:28:31;;;;;;;;;;;;;;;16.96;40.43;99914.28;5320534;32;33138;-70
2022/09/18 11:31:41;;;;;;;;;;;;;;;17.50;39.37;99909.31;5326779;32;33195;-69
2022/09/18 11:35:09;;;;;;;;;;;;;;;17.02;40.08;99911.16;5322875;32;33561;-69
2022/09/18 11:38:13;;;;;;;;;;;;;;;17.51;39.22;99911.00;5319400;32;33788;-71
2022/09/18 11:41:22;;;;;;;;;;;;;;;17.94;37.55;99904.28;5339745;32;44835;-70
2022/09/18 11:44:27;;;;;;;;;;;;;;;17.08;39.11;99916.03;5309966;32;33740;-71
2022/09/18 11:47:39;;;;;;;;;;;;;;;16.81;39.73;99912.72;5325218;32;32895;-67
2022/09/18 11:50:40;;;;;;;;;;;;;;;17.35;38.53;99910.47;5311111;32;35133;-69
2022/09/18 11:53:43;;;;;;;;;;;;;;;17.63;38.60;99901.25;5321907;32;33395;-72
2022/09/18 11:56:47;;;;;;;;;;;;;;;17.49;38.73;99904.13;5338579;32;45533;-71
2022/09/18 12:00:09;;;;;;;;;;;;;;;16.93;39.83;99895.91;5323055;32;34323;-71
2022/09/18 12:03:16;;;;;;;;;;;;;;;17.40;38.68;99897.72;5332827;32;33730;-71
2022/09/18 12:06:18;;;;;;;;;;;;;;;17.26;39.07;99890.78;5322252;32;46099;-69
2022/09/18 12:09:39;;;;;;;;;;;;;;;17.87;38.24;99894.09;5330136;32;33674;-69
2022/09/18 12:12:43;;;;;;;;;;;;;;;17.23;38.91;99898.97;5339634;32;33030;-68
2022/09/18 12:15:47;;;;;;;;;;;;;;;17.70;37.58;99883.03;5289831;32;44522;-72
2022/09/18 12:18:58;;;;;;;;;;;;;;;18.01;37.68;99881.56;5340766;32;33769;-69
2022/09/18 12:22:11;;;;;;;;;;;;;;;19.05;35.39;99881.22;5320099;32;33391;-71
2022/09/18 12:25:13;;;;;;;;;;;;;;;19.46;33.42;99873.31;5313867;32;33403;-71
2022/09/18 12:28:32;;;;;;;;;;;;;;;20.85;31.55;99875.53;5333623;32;46015;-68
2022/09/18 12:31:37;;;;;;;;;;;;;;;19.92;33.35;99864.09;5324406;32;33473;-73
2022/09/18 12:34:55;;;;;;;;;;;;;;;22.13;29.92;99869.00;5341675;32;33153;-69
2022/09/18 12:38:04;;;;;;;;;;;;;;;21.19;30.94;99873.31;5310108;32;33835;-70
2022/09/18 12:41:12;;;;;;;;;;;;;;;19.90;33.52;99871.37;5331729;32;33540;-68
2022/09/18 12:44:14;;;;;;;;;;;;;;;18.97;34.83;99883.69;5336073;32;44598;-72
2022/09/18 12:47:18;;;;;;;;;;;;;;;17.70;37.55;99881.22;5324510;32;34520;-72
2022/09/18 12:50:22;;;;;;;;;;;;;;;18.83;35.78;99877.66;5341869;32;33460;-69
2022/09/18 12:53:37;;;;;;;;;;;;;;;18.28;35.83;99882.03;5309955;32;33408;-71
2022/09/18 12:56:41;;;;;;;;;;;;;;;18.89;34.81;99881.66;5338968;32;33679;-69
2022/09/18 13:00:04;;;;;;;;;;;;;;;18.08;36.25;99886.28;5327504;32;33774;-69
2022/09/18 13:03:15;;;;;;;;;;;;;;;19.23;33.85;99885.03;5324831;32;33756;-69
2022/09/18 13:06:19;;;;;;;;;;;;;;;19.90;32.16;99867.84;5326201;32;44807;-69
2022/09/18 13:09:23;;;;;;;;;;;;;;;21.63;29.46;99854.03;5312367;32;34210;-69
2022/09/18 13:12:30;;;;;;;;;;;;;;;21.66;26.63;99863.63;5325591;32;33682;-72
2022/09/18 13:15:32;;;;;;;;;;;;;;;20.35;29.61;99868.38;5289871;32;33370;-69
2022/09/18 13:18:33;;;;;;;;;;;;;;;20.17;29.34;99869.97;5320602;32;33626;-72
2022/09/18 13:21:36;;;;;;;;;;;;;;;23.10;25.08;99861.28;5338714;32;33609;-69
2022/09/18 13:24:38;;;;;;;;;;;;;;;21.90;25.17;99850.63;5305820;32;34032;-68
2022/09/18 13:27:40;;;;;;;;;;;;;;;18.96;29.08;99872.19;5325408;32;33088;-73
2022/09/18 13:30:42;;;;;;;;;;;;;;;19.21;29.58;99874.50;5310921;32;32838;-70
2022/09/18 13:34:00;;;;;;;;;;;;;;;18.44;31.01;99876.38;5339666;32;44625;-71
2022/09/18 13:37:05;;;;;;;;;;;;;;;18.62;30.37;99885.53;5317148;32;33078;-69
2022/09/18 13:40:26;;;;;;;;;;;;;;;18.76;30.70;99888.94;5309814;32;33621;-69
2022/09/18 13:43:27;;;;;;;;;;;;;;;18.82;30.71;99899.94;5341517;32;33368;-68
2022/09/18 13:46:38;;;;;;;;;;;;;;;17.87;32.36;99911.88;5322644;32;33636;-72
2022/09/18 13:49:50;;;;;;;;;;;;;;;17.52;33.78;99947.28;5339708;32;33928;-73
2022/09/18 13:52:56;;;;;;;;;;;;;;;16.93;36.84;99946.34;5328608;32;43229;-71
2022/09/18 13:55:58;;;;;;;;;;;;;;;16.70;37.43;99954.16;5311539;32;34236;-71
2022/09/18 13:59:00;;;;;;;;;;;;;;;16.54;38.09;99956.16;5341752;32;34302;-69
2022/09/18 14:02:02;;;;;;;;;;;;;;;15.55;41.12;99979.69;5323927;32;33859;-68
2022/09/18 14:05:24;;;;;;;;;;;;;;;15.61;41.41;99979.28;5341126;32;33091;-69
2022/09/18 14:08:27;;;;;;;;;;;;;;;15.72;41.80;99977.78;5323369;32;33349;-72
2022/09/18 14:11:29;;;;;;;;;;;;;;;15.70;41.81;99967.25;5322954;32;34511;-68
2022/09/18 14:14:33;;;;;;;;;;;;;;;15.51;41.60;99964.94;5315109;32;33540;-69
2022/09/18 14:17:36;;;;;;;;;;;;;;;16.16;40.47;99964.13;5311628;32;33921;-73
2022/09/18 14:20:38;;;;;;;;;;;;;;;16.13;40.33;99956.41;5325972;32;33461;-71
2022/09/18 14:23:44;;;;;;;;;;;;;;;16.56;39.83;99945.47;5308504;32;33899;-69
2022/09/18 14:26:46;;;;;;;;;;;;;;;16.03;40.50;99958.81;5335796;32;45733;-69
2022/09/18 14:29:48;;;;;;;;;;;;;;;15.89;40.66;99958.91;5326296;32;33790;-68
2022/09/18 14:33:10;;;;;;;;;;;;;;;16.12;40.19;99966.16;5309692;32;34359;-69
2022/09/18 14:36:12;;;;;;;;;;;;;;;16.10;40.36;99970.72;5337849;32;33696;-69
2022/09/18 14:39:30;;;;;;;;;;;;;;;16.34;40.40;99964.66;5322179;32;44751;-70
2022/09/18 14:42:35;;;;;;;;;;;;;;;15.96;41.60;99958.38;5339273;32;33778;-70
2022/09/18 14:45:37;;;;;;;;;;;;;;;16.18;41.80;99962.25;5310859;32;33558;-69
2022/09/18 14:48:38;;;;;;;;;;;;;;;15.90;43.26;99968.56;5325896;32;33882;-69
2022/09/18 14:51:43;;;;;;;;;;;;;;;16.10;43.84;99969.84;5339170;32;32862;-71
2022/09/18 14:55:09;;;;;;;;;;;;;;;15.91;44.62;99996.78;5312254;32;33016;-71
2022/09/18 14:58:15;;;;;;;;;;;;;;;15.65;45.60;99985.28;5341420;32;32927;-68
2022/09/18 15:01:26;;;;;;;;;;;;;;;15.12;47.20;99976.34;5321589;32;44508;-71
2022/09/18 15:04:29;;;;;;;;;;;;;;;15.48;46.66;99978.41;5310298;32;33489;-69
2022/09/18 15:07:30;;;;;;;;;;;;;;;14.69;48.38;99986.16;5338400;32;33303;-71
2022/09/18 15:10:33;;;;;;;;;;;;;;;15.71;46.15;100000.72;5308768;32;35238;-69
2022/09/18 15:13:36;;;;;;;;;;;;;;;15.82;46.38;99981.47;5326411;32;33423;-71
2022/09/18 15:16:38;;;;;;;;;;;;;;;15.49;46.97;99985.37;5297087;32;31417;-71
2022/09/18 15:19:46;;;;;;;;;;;;;;;14.24;49.86;99973.00;5331476;32;33208;-68
2022/09/18 15:22:50;;;;;;;;;;;;;;;14.52;49.36;99985.41;5322104;32;43772;-68
2022/09/18 15:25:52;;;;;;;;;;;;;;;14.69;48.91;99978.22;5319403;32;33998;-71
2022/09/18 15:28:54;;;;;;;;;;;;;;;14.58;49.06;99982.38;5339437;32;33624;-69
2022/09/18 15:31:56;;;;;;;;;;;;;;;15.53;46.14;99984.25;5308197;32;34243;-73
2022/09/18 15:34:58;;;;;;;;;;;;;;;15.04;46.59;99986.56;5326716;32;34295;-67
2022/09/18 15:38:01;;;;;;;;;;;;;;;15.33;46.13;99990.00;5323942;32;34236;-68
2022/09/18 15:41:18;;;;;;;;;;;;;;;15.50;46.08;99991.53;5323225;32;33098;-70
2022/09/18 15:44:33;;;;;;;;;;;;;;;14.44;48.70;99989.44;5319708;32;45184;-71
2022/09/18 15:47:36;;;;;;;;;;;;;;;14.94;47.92;99996.91;5324250;32;33761;-72
2022/09/18 15:50:38;;;;;;;;;;;;;;;14.69;48.84;99991.47;5328620;32;33903;-72
2022/09/18 15:53:40;;;;;;;;;;;;;;;15.75;46.22;99991.63;5310786;32;33795;-72
2022/09/18 15:56:48;;;;;;;;;;;;;;;14.65;48.92;99996.06;5338969;32;33266;-69
2022/09/18 15:59:49;;;;;;;;;;;;;;;14.28;50.09;99994.78;5323841;32;45227;-72
2022/09/18 16:02:58;;;;;;;;;;;;;;;14.69;48.67;99999.38;5312596;32;34080;-68
2022/09/18 16:06:02;;;;;;;;;;;;;;;14.73;48.20;99995.59;5339046;32;33995;-69